Knoxville, TN (37924)

5:46 PM EDT on April 25, 2015 (GMT -0400)
Maloneyville | | Change Station
CLOSE
Current Station
Personal Weather Station
Location: Corryton, TN
Elevation: 1066 ft
Nearby Weather Stations

Elev 1066 ft 36.09 °N, 83.83 °W | Updated 8 seconds ago

Partly Cloudy
Partly Cloudy
74.0 °F
Feels Like 76 °F
N
9.2
Wind Variable Wind from SSW
Gusts 18.4 mph

Today
High -- | Low -- °F
--% Chance of Precip.
Yesterday
High -- | Low -- °F
Precip. -- in
6:49 AM 8:17 PM
Waxing Crescent, 49% visible
Pressure 29.56 in
Visibility 10.0 miles
Clouds Few 3000 ft
Overcast 12000 ft
Heat Index 76 °F
Dew Point 35 °F
Humidity 24%
Rainfall 0.13 in
Snow Depth Not available.
UV 2 out of 12
Pollen 4.10 out of 12
Air Quality Not available.
Flu Activity Sporadic
METAR KTYS 252053Z 22015KT 10SM FEW030 OVC120 24/16 A2958 RMK AO2 PK WND 22026/2002 SLP010 T02390156 58028

More Conditions Fewer Conditions

Pressure 29.56 in
Visibility 10.0 miles
Clouds Few 3000 ft
Overcast 12000 ft
Heat Index 76 °F
Dew Point 35 °F
Humidity 24%
Rainfall 0.13 in
Snow Depth Not available.
UV 2 out of 12
Pollen 4.10 out of 12
Air Quality Not available.
Flu Activity Sporadic
METAR KTYS 252053Z 22015KT 10SM FEW030 OVC120 24/16 A2958 RMK AO2 PK WND 22026/2002 SLP010 T02390156 58028

More Conditions Fewer Conditions

10-Day Weather Forecast

Almanac

Astronomy

Apr. 25, 2015 Rise Set
Actual Time
Civil Twilight
Nautical Twilight
Astronomical Twilight
Moon
Length of Visible Light
Length of Day
Tomorrow will be .
, % of the Moon is Illuminated

Today's Extremes

State Highs State Lows

Community

WunderPhotos

Upload Photos

1,816,820 photos uploaded!

WunderBlogs® & News

Nearby

Air Quality

  Air Quality AQ Index Pollutant
Not available.

Snow Depth

Station Depth Elevation

Earthquake Activity

City Distance Mag. Time & Date
Minimum magnitude displayed is 2.5.

Coastal Water Temperatures

Place Temperature

Stations

Nearby Weather Stations

Station Location Temp. Windchill Dew Point Humidity Wind Precip. Elev Updated Type